createdAt,value
2019-03-21T00:00:30.034Z,46.68
2019-03-21T00:02:56.687Z,46.68
2019-03-21T00:05:27.159Z,46.53
2019-03-21T00:07:53.914Z,46.82
2019-03-21T00:10:26.256Z,46.97
2019-03-21T00:12:52.971Z,47.14
2019-03-21T00:15:25.456Z,47.07
2019-03-21T00:17:56.567Z,47.50
2019-03-21T00:20:23.190Z,47.54
2019-03-21T00:22:49.793Z,47.14
2019-03-21T00:25:21.081Z,47.08
2019-03-21T00:27:47.897Z,47.35
2019-03-21T00:30:18.691Z,47.72
2019-03-21T00:32:45.848Z,47.29
2019-03-21T00:35:13.457Z,47.43
2019-03-21T00:37:40.466Z,47.36
2019-03-21T00:40:14.040Z,47.33
2019-03-21T00:42:40.899Z,47.00
2019-03-21T00:45:13.717Z,46.91
2019-03-21T00:47:40.825Z,46.81
2019-03-21T00:50:12.935Z,46.54
2019-03-21T00:52:39.676Z,46.34
2019-03-21T00:55:11.082Z,46.19
2019-03-21T00:58:15.216Z,46.05
2019-03-21T01:00:46.702Z,45.99
2019-03-21T01:03:13.716Z,45.70
2019-03-21T01:05:41.575Z,45.74
2019-03-21T01:08:08.442Z,45.65
2019-03-21T01:10:35.018Z,45.34
2019-03-21T01:13:01.891Z,45.29
2019-03-21T01:15:28.539Z,45.32
2019-03-21T01:17:55.106Z,45.29
2019-03-21T01:20:21.801Z,45.14
2019-03-21T01:22:49.576Z,45.89
2019-03-21T01:25:19.986Z,45.95
2019-03-21T01:27:47.805Z,45.98
2019-03-21T01:30:18.331Z,46.32
2019-03-21T01:32:44.943Z,45.81
2019-03-21T01:35:11.633Z,45.71
2019-03-21T01:37:38.188Z,46.07
2019-03-21T01:40:10.572Z,46.43
2019-03-21T01:42:37.260Z,46.76
2019-03-21T01:45:09.624Z,46.63
2019-03-21T01:47:36.260Z,46.75
2019-03-21T01:50:08.630Z,46.39
2019-03-21T01:52:38.052Z,46.45
2019-03-21T01:55:09.223Z,46.58
2019-03-21T01:57:36.711Z,46.59
2019-03-21T02:00:09.045Z,46.75
2019-03-21T02:02:35.669Z,47.10
2019-03-21T02:05:06.756Z,47.17
2019-03-21T02:07:33.392Z,47.95
2019-03-21T02:10:01.370Z,47.63
2019-03-21T02:12:28.154Z,47.53
2019-03-21T02:14:54.820Z,47.79
2019-03-21T02:17:21.391Z,47.43
2019-03-21T02:19:48.070Z,47.82
2019-03-21T02:22:14.738Z,47.92
2019-03-21T02:24:41.344Z,47.97
2019-03-21T02:27:07.994Z,48.84
2019-03-21T02:29:34.564Z,48.40
2019-03-21T02:32:01.090Z,48.30
2019-03-21T02:34:27.686Z,48.78
2019-03-21T02:36:54.247Z,48.53
2019-03-21T02:39:20.867Z,48.56
2019-03-21T02:41:47.506Z,49.11
2019-03-21T02:44:14.334Z,48.91
2019-03-21T02:46:40.939Z,48.96
2019-03-21T02:49:07.538Z,49.54
2019-03-21T02:51:34.130Z,49.65
2019-03-21T02:54:00.687Z,49.70
2019-03-21T02:57:23.491Z,49.79
2019-03-21T02:59:50.100Z,49.55
2019-03-21T03:02:16.731Z,49.46
2019-03-21T03:04:43.299Z,49.97
2019-03-21T03:07:09.984Z,50.09
2019-03-21T03:09:37.731Z,50.00
2019-03-21T03:12:04.407Z,50.36
2019-03-21T03:14:30.974Z,50.50
2019-03-21T03:16:57.552Z,50.25
2019-03-21T03:19:24.148Z,50.28
2019-03-21T03:21:50.689Z,50.72
2019-03-21T03:24:18.160Z,50.95
2019-03-21T03:26:44.770Z,50.91
2019-03-21T03:29:11.424Z,50.72
2019-03-21T03:31:38.002Z,51.08
2019-03-21T03:34:04.565Z,51.64
2019-03-21T03:36:31.167Z,51.26
2019-03-21T03:38:58.317Z,51.03
2019-03-21T03:41:25.148Z,51.44
2019-03-21T03:43:52.069Z,51.48
2019-03-21T03:46:18.951Z,51.36
2019-03-21T03:48:45.533Z,51.63
2019-03-21T03:52:08.497Z,51.84
2019-03-21T03:54:35.252Z,51.82
2019-03-21T03:57:01.998Z,52.00
2019-03-21T03:59:28.733Z,52.05
2019-03-21T04:01:55.739Z,52.50
2019-03-21T04:04:25.947Z,52.38
2019-03-21T04:06:52.904Z,53.24
2019-03-21T04:09:19.914Z,53.41
2019-03-21T04:11:46.651Z,53.07
2019-03-21T04:14:13.459Z,53.37
2019-03-21T04:16:40.092Z,53.30
2019-03-21T04:19:06.711Z,53.70
2019-03-21T04:21:33.302Z,54.10
2019-03-21T04:24:00.284Z,53.76
2019-03-21T04:26:32.546Z,53.81
2019-03-21T04:28:59.129Z,54.37
2019-03-21T04:31:25.806Z,53.80
2019-03-21T04:33:57.522Z,53.87
2019-03-21T04:36:24.172Z,53.77
2019-03-21T04:38:50.739Z,53.53
2019-03-21T04:41:17.450Z,53.67
2019-03-21T04:43:44.018Z,53.99
2019-03-21T04:46:10.564Z,53.89
2019-03-21T04:48:37.216Z,53.80
2019-03-21T04:51:03.889Z,54.02
2019-03-21T04:53:30.452Z,54.41
2019-03-21T04:55:57.139Z,54.12
2019-03-21T04:58:25.199Z,53.76
2019-03-21T05:00:56.712Z,53.98
2019-03-21T05:03:27.429Z,53.85
2019-03-21T05:05:54.294Z,53.92
2019-03-21T05:08:20.840Z,54.27
2019-03-21T05:10:47.464Z,54.21
2019-03-21T05:13:14.118Z,54.16
2019-03-21T05:15:45.733Z,54.12
2019-03-21T05:18:19.234Z,53.77
2019-03-21T05:20:46.072Z,54.49
2019-03-21T05:23:12.648Z,54.33
2019-03-21T05:25:39.235Z,55.18
2019-03-21T05:28:05.934Z,55.34
2019-03-21T05:30:36.342Z,55.19
2019-03-21T05:33:03.172Z,54.92
2019-03-21T05:35:29.786Z,54.93
2019-03-21T05:37:56.450Z,55.01
2019-03-21T05:40:23.430Z,54.98
2019-03-21T05:42:55.805Z,55.65
2019-03-21T05:45:23.257Z,55.15
2019-03-21T05:47:49.835Z,55.25
2019-03-21T05:50:16.725Z,55.00
2019-03-21T05:52:43.439Z,55.19
2019-03-21T05:55:11.404Z,55.31
2019-03-21T05:57:38.179Z,55.65
2019-03-21T06:00:10.489Z,55.20
2019-03-21T06:02:37.200Z,55.97
2019-03-21T06:05:05.426Z,56.15
2019-03-21T06:07:37.858Z,56.19
2019-03-21T06:10:10.164Z,56.34
2019-03-21T06:12:40.781Z,55.91
2019-03-21T06:15:28.973Z,56.95
2019-03-21T06:18:01.299Z,56.15
2019-03-21T06:20:33.693Z,56.42
2019-03-21T06:23:06.060Z,56.31
2019-03-21T06:25:36.530Z,56.69
2019-03-21T06:28:03.103Z,56.69
2019-03-21T06:30:29.711Z,56.21
2019-03-21T06:32:56.410Z,56.25
2019-03-21T06:35:23.240Z,56.52
2019-03-21T06:37:50.229Z,56.57
2019-03-21T06:40:17.140Z,56.75
2019-03-21T06:42:43.688Z,56.89
2019-03-21T06:45:10.611Z,56.68
2019-03-21T06:47:37.197Z,56.76
2019-03-21T06:50:05.829Z,57.63
2019-03-21T06:52:32.507Z,56.53
2019-03-21T06:54:59.906Z,56.91
2019-03-21T06:57:27.095Z,56.44
2019-03-21T06:59:53.678Z,56.70
2019-03-21T07:02:21.342Z,57.24
2019-03-21T07:04:47.961Z,57.58
2019-03-21T07:07:14.600Z,56.74
2019-03-21T07:09:41.179Z,57.65
2019-03-21T07:12:08.037Z,57.77
2019-03-21T07:14:34.699Z,57.15
2019-03-21T07:17:02.958Z,57.66
2019-03-21T07:19:30.637Z,57.40
2019-03-21T07:21:57.196Z,57.58
2019-03-21T07:24:23.835Z,57.84
2019-03-21T07:26:50.607Z,57.22
2019-03-21T07:29:17.359Z,57.21
2019-03-21T07:31:43.937Z,58.02
2019-03-21T07:34:10.548Z,57.17
2019-03-21T07:36:37.967Z,57.44
2019-03-21T07:39:06.447Z,57.82
2019-03-21T07:41:33.068Z,57.35
2019-03-21T07:43:59.729Z,57.12
2019-03-21T07:46:26.434Z,57.88
2019-03-21T07:48:53.163Z,58.08
2019-03-21T07:51:20.687Z,58.32
2019-03-21T07:53:47.259Z,58.68
2019-03-21T07:56:13.849Z,58.20
2019-03-21T07:58:40.413Z,58.75
2019-03-21T08:01:07.173Z,58.55
2019-03-21T08:03:34.362Z,58.58
2019-03-21T08:06:01.365Z,58.30
2019-03-21T08:08:27.986Z,58.52
2019-03-21T08:10:55.856Z,58.58
2019-03-21T08:13:22.406Z,57.67
2019-03-21T08:15:48.982Z,57.74
2019-03-21T08:18:16.704Z,57.92
2019-03-21T08:20:43.521Z,58.65
2019-03-21T08:23:11.950Z,57.99
2019-03-21T08:25:38.575Z,57.86
2019-03-21T08:28:05.297Z,57.72
2019-03-21T08:30:34.557Z,57.43
2019-03-21T08:33:03.444Z,56.29
2019-03-21T08:35:30.491Z,55.88
2019-03-21T08:37:57.157Z,56.78
2019-03-21T08:40:24.465Z,57.26
2019-03-21T08:42:51.161Z,57.20
2019-03-21T08:45:17.765Z,56.84
2019-03-21T08:47:44.584Z,56.62
2019-03-21T08:50:12.674Z,56.00
2019-03-21T08:52:39.790Z,55.04
2019-03-21T08:55:07.935Z,55.87
2019-03-21T08:57:34.524Z,54.80
2019-03-21T09:00:01.506Z,55.09
2019-03-21T09:02:28.157Z,55.24
2019-03-21T09:04:55.007Z,55.18
2019-03-21T09:07:21.565Z,55.15
2019-03-21T09:11:03.327Z,55.39
2019-03-21T09:13:30.110Z,55.29
2019-03-21T09:15:56.712Z,54.78
2019-03-21T09:18:23.281Z,55.52
2019-03-21T09:20:49.833Z,55.54
2019-03-21T09:23:16.417Z,55.08
2019-03-21T09:25:43.196Z,55.61
2019-03-21T09:28:09.863Z,55.01
2019-03-21T09:30:36.541Z,54.33
2019-03-21T09:33:03.454Z,52.93
2019-03-21T09:35:30.079Z,52.42
2019-03-21T09:37:56.768Z,52.44
2019-03-21T09:40:23.335Z,52.88
2019-03-21T09:42:50.154Z,52.48
2019-03-21T09:45:16.904Z,52.28
2019-03-21T09:47:43.524Z,52.83
2019-03-21T09:50:15.896Z,52.44
2019-03-21T09:52:42.471Z,52.70
2019-03-21T09:55:09.350Z,52.20
2019-03-21T09:57:35.937Z,51.84
2019-03-21T10:00:06.821Z,52.00
2019-03-21T10:02:33.598Z,52.46
2019-03-21T10:05:00.327Z,51.94
2019-03-21T10:07:27.170Z,51.44
2019-03-21T10:12:41.166Z,51.80
2019-03-21T10:15:08.263Z,51.70
2019-03-21T10:17:34.925Z,51.75
2019-03-21T10:20:04.999Z,51.55
2019-03-21T10:22:34.717Z,52.00
2019-03-21T10:25:01.393Z,50.25
2019-03-21T10:27:28.086Z,50.12
2019-03-21T10:29:54.654Z,48.41
2019-03-21T10:32:21.209Z,49.08
2019-03-21T10:34:47.869Z,49.23
2019-03-21T10:37:14.543Z,48.69
2019-03-21T10:39:44.307Z,49.35
2019-03-21T10:42:11.088Z,49.05
2019-03-21T10:44:37.746Z,49.31
2019-03-21T10:47:04.539Z,49.02
2019-03-21T10:49:31.093Z,49.46
2019-03-21T10:51:57.667Z,48.97
2019-03-21T10:54:24.234Z,49.24
2019-03-21T10:56:52.181Z,49.44
2019-03-21T10:59:18.827Z,49.81
2019-03-21T11:01:45.602Z,51.08
2019-03-21T11:04:12.136Z,52.84
2019-03-21T11:06:38.723Z,53.87
2019-03-21T11:09:06.526Z,53.82
2019-03-21T11:11:33.192Z,53.70
2019-03-21T11:13:59.746Z,53.96
2019-03-21T11:16:26.758Z,53.14
2019-03-21T11:18:53.617Z,52.83
2019-03-21T11:21:23.190Z,50.21
2019-03-21T11:23:49.792Z,50.95
2019-03-21T11:26:16.412Z,50.06
2019-03-21T11:28:43.038Z,47.73
2019-03-21T11:31:09.590Z,47.86
2019-03-21T11:33:36.167Z,46.37
2019-03-21T11:36:03.055Z,47.77
2019-03-21T11:38:29.672Z,49.83
2019-03-21T11:40:56.672Z,48.82
2019-03-21T11:43:23.772Z,48.82
2019-03-21T11:45:50.631Z,49.75
2019-03-21T11:48:17.662Z,50.30
2019-03-21T11:50:44.858Z,50.38
2019-03-21T11:53:11.908Z,49.96
2019-03-21T11:55:38.916Z,48.37
2019-03-21T11:58:05.892Z,48.20
2019-03-21T12:00:42.709Z,47.57
2019-03-21T12:03:04.258Z,47.02
2019-03-21T12:05:32.137Z,46.22
2019-03-21T12:07:59.261Z,46.45
2019-03-21T12:10:26.418Z,46.92
2019-03-21T12:12:53.609Z,48.54
2019-03-21T12:15:20.591Z,47.77
2019-03-21T12:17:47.459Z,47.22
2019-03-21T12:20:20.293Z,47.73
2019-03-21T12:22:47.548Z,47.63
2019-03-21T12:25:15.753Z,47.08
2019-03-21T12:27:45.714Z,46.39
2019-03-21T12:30:18.447Z,45.67
2019-03-21T12:32:45.563Z,46.04
2019-03-21T12:35:14.642Z,45.96
2019-03-21T12:37:41.904Z,46.23
2019-03-21T12:40:09.143Z,45.96
2019-03-21T12:42:36.164Z,46.76
2019-03-21T12:45:07.779Z,46.54
2019-03-21T12:47:35.684Z,46.89
2019-03-21T12:50:06.750Z,46.97
2019-03-21T12:52:41.407Z,47.19
2019-03-21T12:55:06.699Z,46.27
2019-03-21T12:57:35.224Z,45.56
2019-03-21T13:00:07.979Z,45.44
2019-03-21T13:02:34.969Z,44.58
2019-03-21T13:05:06.219Z,44.90
2019-03-21T13:07:33.500Z,44.45
2019-03-21T13:10:00.457Z,45.54
2019-03-21T13:12:27.772Z,45.53
2019-03-21T13:14:54.736Z,46.29
2019-03-21T13:17:21.764Z,45.25
2019-03-21T13:19:48.742Z,45.94
2019-03-21T13:22:15.717Z,45.01
2019-03-21T13:24:42.722Z,44.43
2019-03-21T13:27:09.698Z,44.58
2019-03-21T13:29:36.590Z,44.83
2019-03-21T13:32:03.645Z,45.26
2019-03-21T13:34:30.660Z,44.79
2019-03-21T13:36:57.574Z,45.01
2019-03-21T13:39:24.885Z,45.24
2019-03-21T13:41:51.955Z,45.41
2019-03-21T13:44:18.865Z,46.28
2019-03-21T13:46:45.896Z,45.98
2019-03-21T13:49:12.763Z,45.69
2019-03-21T13:51:39.845Z,44.98
2019-03-21T13:54:08.737Z,45.84
2019-03-21T13:56:38.269Z,45.05
2019-03-21T13:59:04.603Z,45.07
2019-03-21T14:01:31.465Z,44.82
2019-03-21T14:03:58.479Z,45.21
2019-03-21T14:07:21.615Z,45.16
2019-03-21T14:09:48.602Z,44.53
2019-03-21T14:12:15.655Z,45.52
2019-03-21T14:14:42.644Z,45.27
2019-03-21T14:17:21.370Z,44.59
2019-03-21T14:19:39.085Z,44.84
2019-03-21T14:22:06.178Z,44.15
2019-03-21T14:24:33.047Z,44.20
2019-03-21T14:27:00.054Z,44.43
2019-03-21T14:29:27.110Z,43.89
2019-03-21T14:31:54.231Z,42.92
2019-03-21T14:34:21.343Z,42.22
2019-03-21T14:36:48.257Z,42.10
2019-03-21T14:39:15.141Z,43.06
2019-03-21T14:41:42.038Z,41.73
2019-03-21T14:44:08.906Z,41.56
2019-03-21T14:46:35.834Z,42.57
2019-03-21T14:49:03.127Z,42.59
2019-03-21T14:51:30.188Z,41.91
2019-03-21T14:53:57.229Z,41.35
2019-03-21T14:56:24.332Z,40.76
2019-03-21T14:58:51.255Z,40.27
2019-03-21T15:01:18.457Z,40.86
2019-03-21T15:03:45.384Z,41.52
2019-03-21T15:06:15.262Z,41.53
2019-03-21T15:08:42.175Z,42.29
2019-03-21T15:11:17.057Z,42.14
2019-03-21T15:13:38.207Z,42.40
2019-03-21T15:16:05.355Z,42.34
2019-03-21T15:18:32.258Z,42.18
2019-03-21T15:20:59.132Z,42.47
2019-03-21T15:23:26.194Z,43.26
2019-03-21T15:25:54.166Z,43.54
2019-03-21T15:28:21.301Z,42.92
2019-03-21T15:30:48.560Z,43.04
2019-03-21T15:33:16.853Z,43.45
2019-03-21T15:35:43.890Z,43.58
2019-03-21T15:38:11.467Z,44.05
2019-03-21T15:40:38.526Z,44.22
2019-03-21T15:43:05.718Z,44.48
2019-03-21T15:45:32.908Z,44.18
2019-03-21T15:48:00.035Z,43.96
2019-03-21T15:50:31.148Z,44.78
2019-03-21T15:52:58.385Z,44.46
2019-03-21T15:55:25.920Z,44.48
2019-03-21T15:57:52.835Z,44.78
2019-03-21T16:00:25.837Z,45.02
2019-03-21T16:02:53.129Z,45.08
2019-03-21T16:05:20.516Z,44.95
2019-03-21T16:07:47.440Z,44.96
2019-03-21T16:10:14.410Z,44.99
2019-03-21T16:12:42.897Z,45.67
2019-03-21T16:15:10.355Z,46.40
2019-03-21T16:17:37.397Z,46.12
2019-03-21T16:20:06.509Z,45.57
2019-03-21T16:22:34.015Z,45.71
2019-03-21T16:25:03.182Z,46.08
2019-03-21T16:27:30.189Z,46.38
2019-03-21T16:29:57.151Z,46.21
2019-03-21T16:32:24.577Z,46.84
2019-03-21T16:34:53.397Z,46.33
2019-03-21T16:38:16.811Z,46.50
2019-03-21T16:40:44.272Z,46.50
2019-03-21T16:43:11.269Z,46.68
2019-03-21T16:45:38.283Z,46.69
2019-03-21T16:48:05.415Z,47.03
2019-03-21T16:50:34.562Z,47.62
2019-03-21T16:53:02.479Z,47.81
2019-03-21T16:55:29.974Z,47.70
2019-03-21T16:57:56.923Z,47.97
2019-03-21T17:00:24.509Z,48.61
2019-03-21T17:02:53.568Z,48.87
2019-03-21T17:05:22.596Z,49.00
2019-03-21T17:07:50.069Z,48.97
2019-03-21T17:10:17.328Z,49.84
2019-03-21T17:12:46.499Z,49.46
2019-03-21T17:15:14.101Z,49.46
2019-03-21T17:17:41.338Z,49.90
2019-03-21T17:20:11.508Z,50.26
2019-03-21T17:22:38.411Z,50.44
2019-03-21T17:25:07.597Z,51.02
2019-03-21T17:27:34.302Z,50.94
2019-03-21T17:30:01.195Z,51.25
2019-03-21T17:32:28.662Z,51.34
2019-03-21T17:34:55.919Z,51.47
2019-03-21T17:37:22.554Z,51.26
2019-03-21T17:39:49.357Z,51.90
2019-03-21T17:42:16.500Z,52.23
2019-03-21T17:44:43.199Z,52.27
2019-03-21T17:47:09.823Z,52.29
2019-03-21T17:49:36.509Z,52.35
2019-03-21T17:52:03.407Z,52.30
2019-03-21T17:54:41.087Z,52.44
2019-03-21T17:56:59.253Z,52.17
2019-03-21T17:59:26.161Z,52.27
2019-03-21T18:01:53.545Z,52.30
2019-03-21T18:04:20.417Z,52.91
2019-03-21T18:06:47.084Z,52.59
2019-03-21T18:09:13.649Z,53.04
2019-03-21T18:11:40.456Z,52.78
2019-03-21T18:14:07.087Z,52.67
2019-03-21T18:16:34.135Z,52.77
2019-03-21T18:19:00.989Z,52.73
2019-03-21T18:21:27.716Z,53.05
2019-03-21T18:23:54.542Z,53.24
2019-03-21T18:26:21.376Z,53.44
2019-03-21T18:28:48.153Z,53.44
2019-03-21T18:31:16.068Z,53.61
2019-03-21T18:33:42.790Z,53.39
2019-03-21T18:36:09.388Z,53.34
2019-03-21T18:38:36.062Z,53.64
2019-03-21T18:41:03.356Z,53.50
2019-03-21T18:43:29.957Z,53.85
2019-03-21T18:45:56.760Z,53.53
2019-03-21T18:48:23.338Z,53.52
2019-03-21T18:50:50.266Z,53.26
2019-03-21T18:53:16.932Z,53.63
2019-03-21T18:55:44.475Z,53.45
2019-03-21T18:58:14.023Z,53.79
2019-03-21T19:00:40.868Z,54.21
2019-03-21T19:03:07.498Z,54.38
2019-03-21T19:05:34.051Z,54.62
2019-03-21T19:08:00.858Z,54.22
2019-03-21T19:10:27.557Z,53.91
2019-03-21T19:12:54.460Z,54.15
2019-03-21T19:15:21.127Z,54.00
2019-03-21T19:17:47.797Z,54.26
2019-03-21T19:20:17.510Z,54.18
2019-03-21T19:22:44.533Z,54.97
2019-03-21T19:25:18.422Z,54.88
2019-03-21T19:27:40.855Z,54.84
2019-03-21T19:30:12.476Z,54.70
2019-03-21T19:32:39.049Z,55.31
2019-03-21T19:35:06.561Z,55.28
2019-03-21T19:37:33.789Z,55.67
2019-03-21T19:40:00.589Z,55.71
2019-03-21T19:42:27.217Z,55.84
2019-03-21T19:44:55.789Z,56.11
2019-03-21T19:47:29.886Z,56.20
2019-03-21T19:49:51.237Z,56.97
2019-03-21T19:52:17.844Z,56.86
2019-03-21T19:54:44.541Z,57.31
2019-03-21T19:57:11.133Z,57.49
2019-03-21T19:59:40.560Z,57.40
2019-03-21T20:02:06.436Z,57.68
2019-03-21T20:04:33.227Z,58.26
2019-03-21T20:06:59.903Z,58.06
2019-03-21T20:09:26.641Z,57.99
2019-03-21T20:11:53.412Z,57.94
2019-03-21T20:14:21.960Z,58.84
2019-03-21T20:16:48.786Z,58.71
2019-03-21T20:19:15.578Z,59.00
2019-03-21T20:21:47.736Z,60.05
2019-03-21T20:24:10.716Z,59.95
2019-03-21T20:26:37.350Z,60.23
2019-03-21T20:29:04.082Z,60.01
2019-03-21T20:31:30.839Z,59.79
2019-03-21T20:33:57.384Z,60.21
2019-03-21T20:36:26.996Z,60.81
2019-03-21T20:38:53.652Z,60.58
2019-03-21T20:41:20.243Z,60.90
2019-03-21T20:43:46.840Z,60.18
2019-03-21T20:46:13.562Z,60.67
2019-03-21T20:48:42.121Z,60.23
2019-03-21T20:51:08.838Z,60.83
2019-03-21T20:53:35.517Z,60.30
2019-03-21T20:56:02.299Z,60.92
2019-03-21T20:58:29.093Z,60.88
2019-03-21T21:00:55.852Z,59.97
2019-03-21T21:03:22.434Z,60.61
2019-03-21T21:05:49.160Z,60.23
2019-03-21T21:08:15.724Z,60.49
2019-03-21T21:10:42.292Z,60.96
2019-03-21T21:13:09.109Z,60.69
2019-03-21T21:15:37.615Z,60.86
2019-03-21T21:18:04.412Z,60.93
2019-03-21T21:20:31.071Z,61.17
2019-03-21T21:22:57.598Z,61.23
2019-03-21T21:25:24.430Z,60.86
2019-03-21T21:27:51.344Z,61.42
2019-03-21T21:30:20.271Z,61.09
2019-03-21T21:32:47.233Z,60.85
2019-03-21T21:35:14.271Z,61.53
2019-03-21T21:37:41.072Z,61.46
2019-03-21T21:40:10.042Z,61.76
2019-03-21T21:42:36.810Z,61.52
2019-03-21T21:45:08.414Z,62.23
2019-03-21T21:47:37.173Z,62.06
2019-03-21T21:50:09.192Z,61.78
2019-03-21T21:52:41.877Z,61.85
2019-03-21T21:55:07.100Z,61.96
2019-03-21T21:57:33.879Z,62.41
2019-03-21T22:00:00.482Z,62.09
2019-03-21T22:02:27.208Z,62.68
2019-03-21T22:04:53.899Z,63.26
2019-03-21T22:07:20.462Z,63.02
2019-03-21T22:09:47.123Z,62.51
2019-03-21T22:12:13.834Z,62.89
2019-03-21T22:14:40.652Z,62.81
2019-03-21T22:17:07.485Z,62.56
2019-03-21T22:19:34.082Z,62.38
2019-03-21T22:22:00.802Z,63.07
2019-03-21T22:24:27.595Z,63.01
2019-03-21T22:26:54.182Z,63.27
2019-03-21T22:29:20.728Z,63.02
2019-03-21T22:31:47.768Z,62.72
2019-03-21T22:34:14.489Z,63.09
2019-03-21T22:36:49.229Z,63.20
2019-03-21T22:39:09.751Z,62.69
2019-03-21T22:41:36.440Z,63.85
2019-03-21T22:44:03.362Z,64.03
2019-03-21T22:46:29.954Z,63.14
2019-03-21T22:48:56.534Z,63.50
2019-03-21T22:51:23.273Z,63.09
2019-03-21T22:53:50.020Z,63.42
2019-03-21T22:56:16.618Z,63.82
2019-03-21T22:58:43.256Z,64.13
2019-03-21T23:01:10.298Z,63.40
2019-03-21T23:03:37.145Z,64.27
2019-03-21T23:06:03.856Z,64.66
2019-03-21T23:08:30.427Z,63.93
2019-03-21T23:10:59.013Z,64.89
2019-03-21T23:13:26.468Z,64.25
2019-03-21T23:15:53.671Z,64.34
2019-03-21T23:18:20.379Z,64.71
2019-03-21T23:20:47.205Z,64.76
2019-03-21T23:23:13.784Z,64.58
2019-03-21T23:25:40.393Z,65.47
2019-03-21T23:28:07.410Z,64.21
2019-03-21T23:30:35.185Z,64.20
2019-03-21T23:33:01.895Z,65.03
2019-03-21T23:35:28.761Z,64.95
2019-03-21T23:37:55.339Z,64.22
2019-03-21T23:40:21.996Z,65.44
2019-03-21T23:42:48.587Z,65.37
2019-03-21T23:45:15.571Z,64.84
2019-03-21T23:47:42.756Z,64.63
2019-03-21T23:50:13.169Z,65.22
2019-03-21T23:52:41.294Z,65.11
2019-03-21T23:55:09.225Z,66.04
2019-03-21T23:57:35.954Z,65.56
